sensor_id;sensor_type;location;lat;lon;timestamp;P1;durP1;ratioP1;P2;durP2;ratioP2
58689;SDS011;44470;53.206;-6.106;2023-01-31T00:01:27;2.15;;;1.23;;
58689;SDS011;44470;53.206;-6.106;2023-01-31T00:03:55;2.40;;;1.10;;
58689;SDS011;44470;53.206;-6.106;2023-01-31T00:06:29;2.38;;;1.30;;
58689;SDS011;44470;53.206;-6.106;2023-01-31T00:08:57;1.60;;;1.15;;
58689;SDS011;44470;53.206;-6.106;2023-01-31T00:11:24;2.78;;;1.05;;
58689;SDS011;44470;53.206;-6.106;2023-01-31T00:13:52;5.07;;;1.25;;
58689;SDS011;44470;53.206;-6.106;2023-01-31T00:16:17;3.40;;;0.93;;
58689;SDS011;44470;53.206;-6.106;2023-01-31T00:18:44;4.60;;;1.20;;
58689;SDS011;44470;53.206;-6.106;2023-01-31T00:21:15;3.97;;;0.90;;
58689;SDS011;44470;53.206;-6.106;2023-01-31T00:23:43;1.92;;;0.85;;
58689;SDS011;44470;53.206;-6.106;2023-01-31T00:26:14;2.17;;;1.05;;
58689;SDS011;44470;53.206;-6.106;2023-01-31T00:28:41;2.95;;;0.93;;
58689;SDS011;44470;53.206;-6.106;2023-01-31T00:31:09;5.90;;;1.10;;
58689;SDS011;44470;53.206;-6.106;2023-01-31T00:33:37;4.00;;;0.90;;
58689;SDS011;44470;53.206;-6.106;2023-01-31T00:36:04;3.67;;;0.98;;
58689;SDS011;44470;53.206;-6.106;2023-01-31T00:38:31;1.90;;;0.85;;
58689;SDS011;44470;53.206;-6.106;2023-01-31T00:40:57;2.00;;;0.82;;
58689;SDS011;44470;53.206;-6.106;2023-01-31T00:43:23;3.75;;;0.88;;
58689;SDS011;44470;53.206;-6.106;2023-01-31T00:45:48;1.33;;;0.73;;
58689;SDS011;44470;53.206;-6.106;2023-01-31T00:48:14;2.90;;;1.08;;
58689;SDS011;44470;53.206;-6.106;2023-01-31T00:50:39;1.02;;;0.73;;
58689;SDS011;44470;53.206;-6.106;2023-01-31T00:53:05;3.90;;;0.80;;
58689;SDS011;44470;53.206;-6.106;2023-01-31T00:55:31;3.17;;;1.00;;
58689;SDS011;44470;53.206;-6.106;2023-01-31T00:57:57;1.33;;;0.82;;
58689;SDS011;44470;53.206;-6.106;2023-01-31T01:00:22;2.05;;;0.75;;
58689;SDS011;44470;53.206;-6.106;2023-01-31T01:02:48;1.02;;;0.70;;
58689;SDS011;44470;53.206;-6.106;2023-01-31T01:05:13;1.00;;;0.90;;
58689;SDS011;44470;53.206;-6.106;2023-01-31T01:07:39;1.33;;;0.60;;
58689;SDS011;44470;53.206;-6.106;2023-01-31T01:10:05;2.25;;;0.73;;
58689;SDS011;44470;53.206;-6.106;2023-01-31T01:12:31;1.27;;;0.70;;
58689;SDS011;44470;53.206;-6.106;2023-01-31T01:14:57;1.33;;;0.90;;
58689;SDS011;44470;53.206;-6.106;2023-01-31T01:17:22;0.88;;;0.80;;
58689;SDS011;44470;53.206;-6.106;2023-01-31T01:19:48;1.67;;;0.98;;
58689;SDS011;44470;53.206;-6.106;2023-01-31T01:22:13;0.80;;;0.70;;
58689;SDS011;44470;53.206;-6.106;2023-01-31T01:24:43;1.13;;;0.70;;
58689;SDS011;44470;53.206;-6.106;2023-01-31T01:27:10;0.70;;;0.57;;
58689;SDS011;44470;53.206;-6.106;2023-01-31T01:29:37;1.60;;;0.75;;
58689;SDS011;44470;53.206;-6.106;2023-01-31T01:32:03;1.33;;;0.63;;
58689;SDS011;44470;53.206;-6.106;2023-01-31T01:34:30;1.63;;;0.70;;
58689;SDS011;44470;53.206;-6.106;2023-01-31T01:36:55;1.38;;;0.80;;
58689;SDS011;44470;53.206;-6.106;2023-01-31T01:39:21;0.80;;;0.45;;
58689;SDS011;44470;53.206;-6.106;2023-01-31T01:41:47;1.48;;;0.50;;
58689;SDS011;44470;53.206;-6.106;2023-01-31T01:52:32;0.80;;;0.45;;
58689;SDS011;44470;53.206;-6.106;2023-01-31T01:55:06;0.30;;;0.30;;
58689;SDS011;44470;53.206;-6.106;2023-01-31T01:57:39;0.40;;;0.40;;
58689;SDS011;44470;53.206;-6.106;2023-01-31T02:00:09;1.07;;;0.83;;
58689;SDS011;44470;53.206;-6.106;2023-01-31T02:02:42;1.38;;;0.73;;
58689;SDS011;44470;53.206;-6.106;2023-01-31T02:05:10;0.90;;;0.43;;
58689;SDS011;44470;53.206;-6.106;2023-01-31T02:07:41;2.03;;;0.65;;
58689;SDS011;44470;53.206;-6.106;2023-01-31T02:10:08;0.65;;;0.50;;
58689;SDS011;44470;53.206;-6.106;2023-01-31T02:12:40;0.47;;;0.35;;
58689;SDS011;44470;53.206;-6.106;2023-01-31T02:15:06;1.50;;;0.70;;
58689;SDS011;44470;53.206;-6.106;2023-01-31T02:17:32;0.75;;;0.50;;
58689;SDS011;44470;53.206;-6.106;2023-01-31T02:28:36;0.60;;;0.57;;
58689;SDS011;44470;53.206;-6.106;2023-01-31T02:37:16;1.05;;;0.70;;
58689;SDS011;44470;53.206;-6.106;2023-01-31T02:56:48;0.22;;;0.20;;
58689;SDS011;44470;53.206;-6.106;2023-01-31T02:59:17;0.30;;;0.30;;
58689;SDS011;44470;53.206;-6.106;2023-01-31T03:01:54;0.63;;;0.40;;
58689;SDS011;44470;53.206;-6.106;2023-01-31T03:04:24;0.63;;;0.40;;
58689;SDS011;44470;53.206;-6.106;2023-01-31T03:18:19;0.80;;;0.40;;
58689;SDS011;44470;53.206;-6.106;2023-01-31T03:20:59;0.50;;;0.30;;
58689;SDS011;44470;53.206;-6.106;2023-01-31T03:23:30;0.52;;;0.40;;
58689;SDS011;44470;53.206;-6.106;2023-01-31T03:25:58;0.40;;;0.30;;
58689;SDS011;44470;53.206;-6.106;2023-01-31T03:28:27;0.22;;;0.22;;
58689;SDS011;44470;53.206;-6.106;2023-01-31T03:31:10;0.20;;;0.20;;
58689;SDS011;44470;53.206;-6.106;2023-01-31T03:33:44;1.02;;;0.28;;
58689;SDS011;44470;53.206;-6.106;2023-01-31T03:36:23;0.20;;;0.20;;
58689;SDS011;44470;53.206;-6.106;2023-01-31T03:41:39;0.20;;;0.20;;
58689;SDS011;44470;53.206;-6.106;2023-01-31T03:46:58;0.30;;;0.20;;
58689;SDS011;44470;53.206;-6.106;2023-01-31T03:49:29;0.95;;;0.20;;
58689;SDS011;44470;53.206;-6.106;2023-01-31T03:52:02;0.50;;;0.30;;
58689;SDS011;44470;53.206;-6.106;2023-01-31T03:54:33;0.30;;;0.22;;
58689;SDS011;44470;53.206;-6.106;2023-01-31T03:57:23;0.20;;;0.20;;
58689;SDS011;44470;53.206;-6.106;2023-01-31T03:59:53;0.15;;;0.10;;
58689;SDS011;44470;53.206;-6.106;2023-01-31T04:02:24;0.30;;;0.30;;
58689;SDS011;44470;53.206;-6.106;2023-01-31T04:04:57;0.25;;;0.20;;
58689;SDS011;44470;53.206;-6.106;2023-01-31T04:07:33;0.68;;;0.20;;
58689;SDS011;44470;53.206;-6.106;2023-01-31T04:10:00;0.65;;;0.30;;
58689;SDS011;44470;53.206;-6.106;2023-01-31T04:12:26;0.20;;;0.20;;
58689;SDS011;44470;53.206;-6.106;2023-01-31T04:14:51;0.10;;;0.10;;
58689;SDS011;44470;53.206;-6.106;2023-01-31T04:17:17;1.33;;;0.30;;
58689;SDS011;44470;53.206;-6.106;2023-01-31T04:19:42;0.45;;;0.30;;
58689;SDS011;44470;53.206;-6.106;2023-01-31T04:22:08;0.20;;;0.10;;
58689;SDS011;44470;53.206;-6.106;2023-01-31T04:24:33;0.10;;;0.10;;
58689;SDS011;44470;53.206;-6.106;2023-01-31T04:26:59;0.43;;;0.30;;
58689;SDS011;44470;53.206;-6.106;2023-01-31T04:29:24;0.17;;;0.10;;
58689;SDS011;44470;53.206;-6.106;2023-01-31T04:31:50;1.80;;;0.45;;
58689;SDS011;44470;53.206;-6.106;2023-01-31T04:34:15;0.88;;;0.22;;
58689;SDS011;44470;53.206;-6.106;2023-01-31T04:36:41;0.05;;;0.05;;
58689;SDS011;44470;53.206;-6.106;2023-01-31T04:39:08;0.22;;;0.10;;
58689;SDS011;44470;53.206;-6.106;2023-01-31T04:41:34;0.40;;;0.20;;
58689;SDS011;44470;53.206;-6.106;2023-01-31T04:44:00;0.10;;;0.10;;
58689;SDS011;44470;53.206;-6.106;2023-01-31T04:46:25;0.30;;;0.20;;
58689;SDS011;44470;53.206;-6.106;2023-01-31T04:48:51;0.10;;;0.10;;
58689;SDS011;44470;53.206;-6.106;2023-01-31T04:51:16;0.17;;;0.10;;
58689;SDS011;44470;53.206;-6.106;2023-01-31T04:53:42;0.20;;;0.15;;
58689;SDS011;44470;53.206;-6.106;2023-01-31T04:56:09;0.40;;;0.10;;
58689;SDS011;44470;53.206;-6.106;2023-01-31T04:58:34;0.20;;;0.20;;
58689;SDS011;44470;53.206;-6.106;2023-01-31T05:01:00;0.70;;;0.22;;
58689;SDS011;44470;53.206;-6.106;2023-01-31T05:03:26;0.40;;;0.20;;
58689;SDS011;44470;53.206;-6.106;2023-01-31T05:05:51;1.25;;;0.45;;
58689;SDS011;44470;53.206;-6.106;2023-01-31T05:08:17;0.52;;;0.30;;
58689;SDS011;44470;53.206;-6.106;2023-01-31T05:10:42;1.88;;;0.47;;
58689;SDS011;44470;53.206;-6.106;2023-01-31T05:13:08;0.22;;;0.20;;
58689;SDS011;44470;53.206;-6.106;2023-01-31T05:15:34;0.95;;;0.80;;
58689;SDS011;44470;53.206;-6.106;2023-01-31T05:18:00;0.85;;;0.50;;
58689;SDS011;44470;53.206;-6.106;2023-01-31T05:20:29;1.20;;;0.57;;
58689;SDS011;44470;53.206;-6.106;2023-01-31T05:22:58;0.40;;;0.40;;
58689;SDS011;44470;53.206;-6.106;2023-01-31T05:25:24;0.63;;;0.40;;
58689;SDS011;44470;53.206;-6.106;2023-01-31T05:27:50;2.13;;;0.80;;
58689;SDS011;44470;53.206;-6.106;2023-01-31T05:30:16;2.35;;;0.65;;
58689;SDS011;44470;53.206;-6.106;2023-01-31T05:32:43;3.00;;;1.17;;
58689;SDS011;44470;53.206;-6.106;2023-01-31T05:35:10;1.08;;;0.70;;
58689;SDS011;44470;53.206;-6.106;2023-01-31T05:37:36;1.75;;;0.55;;
58689;SDS011;44470;53.206;-6.106;2023-01-31T05:40:02;1.40;;;0.60;;
58689;SDS011;44470;53.206;-6.106;2023-01-31T05:42:27;2.63;;;1.02;;
58689;SDS011;44470;53.206;-6.106;2023-01-31T05:44:53;1.23;;;0.50;;
58689;SDS011;44470;53.206;-6.106;2023-01-31T05:47:18;1.45;;;0.70;;
58689;SDS011;44470;53.206;-6.106;2023-01-31T05:49:44;1.70;;;0.80;;
58689;SDS011;44470;53.206;-6.106;2023-01-31T05:52:09;2.72;;;1.00;;
58689;SDS011;44470;53.206;-6.106;2023-01-31T05:54:35;2.25;;;0.82;;
58689;SDS011;44470;53.206;-6.106;2023-01-31T05:57:00;1.73;;;0.90;;
58689;SDS011;44470;53.206;-6.106;2023-01-31T05:59:26;1.42;;;0.70;;
58689;SDS011;44470;53.206;-6.106;2023-01-31T06:01:54;2.05;;;0.85;;
58689;SDS011;44470;53.206;-6.106;2023-01-31T06:04:20;3.03;;;1.17;;
58689;SDS011;44470;53.206;-6.106;2023-01-31T06:06:45;1.85;;;0.90;;
58689;SDS011;44470;53.206;-6.106;2023-01-31T06:09:10;1.88;;;1.00;;
58689;SDS011;44470;53.206;-6.106;2023-01-31T06:11:42;1.05;;;0.90;;
58689;SDS011;44470;53.206;-6.106;2023-01-31T06:14:08;1.83;;;0.80;;
58689;SDS011;44470;53.206;-6.106;2023-01-31T06:16:34;3.90;;;1.13;;
58689;SDS011;44470;53.206;-6.106;2023-01-31T06:18:59;3.17;;;1.30;;
58689;SDS011;44470;53.206;-6.106;2023-01-31T06:21:26;2.40;;;0.93;;
58689;SDS011;44470;53.206;-6.106;2023-01-31T06:23:52;2.58;;;1.00;;
58689;SDS011;44470;53.206;-6.106;2023-01-31T06:26:17;3.97;;;1.30;;
58689;SDS011;44470;53.206;-6.106;2023-01-31T06:28:43;2.35;;;1.02;;
58689;SDS011;44470;53.206;-6.106;2023-01-31T06:31:09;2.17;;;0.93;;
58689;SDS011;44470;53.206;-6.106;2023-01-31T06:33:35;2.28;;;1.05;;
58689;SDS011;44470;53.206;-6.106;2023-01-31T06:36:01;4.25;;;1.48;;
58689;SDS011;44470;53.206;-6.106;2023-01-31T06:38:27;1.45;;;0.77;;
58689;SDS011;44470;53.206;-6.106;2023-01-31T06:40:53;2.53;;;1.00;;
58689;SDS011;44470;53.206;-6.106;2023-01-31T06:43:19;2.03;;;0.90;;
58689;SDS011;44470;53.206;-6.106;2023-01-31T06:45:44;1.85;;;1.00;;
58689;SDS011;44470;53.206;-6.106;2023-01-31T06:48:10;1.38;;;0.98;;
58689;SDS011;44470;53.206;-6.106;2023-01-31T06:50:36;2.28;;;1.10;;
58689;SDS011;44470;53.206;-6.106;2023-01-31T06:53:01;4.40;;;1.00;;
58689;SDS011;44470;53.206;-6.106;2023-01-31T06:55:27;3.97;;;1.10;;
58689;SDS011;44470;53.206;-6.106;2023-01-31T06:57:52;2.00;;;1.02;;
58689;SDS011;44470;53.206;-6.106;2023-01-31T07:00:19;1.50;;;0.80;;
58689;SDS011;44470;53.206;-6.106;2023-01-31T07:02:46;2.28;;;0.95;;
58689;SDS011;44470;53.206;-6.106;2023-01-31T07:05:12;1.98;;;1.17;;
58689;SDS011;44470;53.206;-6.106;2023-01-31T07:07:38;3.42;;;1.38;;
58689;SDS011;44470;53.206;-6.106;2023-01-31T07:10:04;2.53;;;0.98;;
58689;SDS011;44470;53.206;-6.106;2023-01-31T07:12:29;2.90;;;1.00;;
58689;SDS011;44470;53.206;-6.106;2023-01-31T07:14:55;1.83;;;1.35;;
58689;SDS011;44470;53.206;-6.106;2023-01-31T07:17:20;3.90;;;1.25;;
58689;SDS011;44470;53.206;-6.106;2023-01-31T07:19:46;2.22;;;1.30;;
58689;SDS011;44470;53.206;-6.106;2023-01-31T07:22:12;1.05;;;0.80;;
58689;SDS011;44470;53.206;-6.106;2023-01-31T07:24:37;4.47;;;1.30;;
58689;SDS011;44470;53.206;-6.106;2023-01-31T07:27:03;2.35;;;1.30;;
58689;SDS011;44470;53.206;-6.106;2023-01-31T07:29:28;2.55;;;1.27;;
58689;SDS011;44470;53.206;-6.106;2023-01-31T07:31:54;3.85;;;1.58;;
58689;SDS011;44470;53.206;-6.106;2023-01-31T07:34:19;1.80;;;1.00;;
58689;SDS011;44470;53.206;-6.106;2023-01-31T07:36:50;2.65;;;1.20;;
58689;SDS011;44470;53.206;-6.106;2023-01-31T07:39:16;3.28;;;1.40;;
58689;SDS011;44470;53.206;-6.106;2023-01-31T07:41:42;3.85;;;1.30;;
58689;SDS011;44470;53.206;-6.106;2023-01-31T07:44:08;3.47;;;1.42;;
58689;SDS011;44470;53.206;-6.106;2023-01-31T07:46:36;2.42;;;1.20;;
58689;SDS011;44470;53.206;-6.106;2023-01-31T07:49:03;2.20;;;1.27;;
58689;SDS011;44470;53.206;-6.106;2023-01-31T07:51:29;3.97;;;1.20;;
58689;SDS011;44470;53.206;-6.106;2023-01-31T07:53:55;2.90;;;1.13;;
58689;SDS011;44470;53.206;-6.106;2023-01-31T07:56:20;3.55;;;1.10;;
58689;SDS011;44470;53.206;-6.106;2023-01-31T07:58:47;2.25;;;1.08;;
58689;SDS011;44470;53.206;-6.106;2023-01-31T08:01:14;2.25;;;0.95;;
58689;SDS011;44470;53.206;-6.106;2023-01-31T08:04:01;3.40;;;1.08;;
58689;SDS011;44470;53.206;-6.106;2023-01-31T08:06:26;2.22;;;1.02;;
58689;SDS011;44470;53.206;-6.106;2023-01-31T08:08:54;2.75;;;1.27;;
58689;SDS011;44470;53.206;-6.106;2023-01-31T08:11:20;3.95;;;1.30;;
58689;SDS011;44470;53.206;-6.106;2023-01-31T08:13:45;4.10;;;1.30;;
58689;SDS011;44470;53.206;-6.106;2023-01-31T08:16:11;3.63;;;1.50;;
58689;SDS011;44470;53.206;-6.106;2023-01-31T08:18:37;2.53;;;1.25;;
58689;SDS011;44470;53.206;-6.106;2023-01-31T08:21:03;3.58;;;1.15;;
58689;SDS011;44470;53.206;-6.106;2023-01-31T08:23:29;4.85;;;1.60;;
58689;SDS011;44470;53.206;-6.106;2023-01-31T08:25:58;6.30;;;1.40;;
58689;SDS011;44470;53.206;-6.106;2023-01-31T08:28:29;5.97;;;1.40;;
58689;SDS011;44470;53.206;-6.106;2023-01-31T08:30:54;6.25;;;1.90;;
58689;SDS011;44470;53.206;-6.106;2023-01-31T08:33:21;5.13;;;1.48;;
58689;SDS011;44470;53.206;-6.106;2023-01-31T08:35:47;7.18;;;1.75;;
58689;SDS011;44470;53.206;-6.106;2023-01-31T08:38:13;6.95;;;2.00;;
58689;SDS011;44470;53.206;-6.106;2023-01-31T08:40:38;7.35;;;1.67;;
58689;SDS011;44470;53.206;-6.106;2023-01-31T08:43:04;5.90;;;1.45;;
58689;SDS011;44470;53.206;-6.106;2023-01-31T08:45:30;8.00;;;1.52;;
58689;SDS011;44470;53.206;-6.106;2023-01-31T08:47:59;4.93;;;1.63;;
58689;SDS011;44470;53.206;-6.106;2023-01-31T08:50:26;6.20;;;1.60;;
58689;SDS011;44470;53.206;-6.106;2023-01-31T08:55:19;6.72;;;1.50;;
58689;SDS011;44470;53.206;-6.106;2023-01-31T08:57:46;4.60;;;1.40;;
58689;SDS011;44470;53.206;-6.106;2023-01-31T09:00:12;6.68;;;1.90;;
58689;SDS011;44470;53.206;-6.106;2023-01-31T09:02:38;4.72;;;1.60;;
58689;SDS011;44470;53.206;-6.106;2023-01-31T09:05:04;8.35;;;1.70;;
58689;SDS011;44470;53.206;-6.106;2023-01-31T09:07:32;6.93;;;1.85;;
58689;SDS011;44470;53.206;-6.106;2023-01-31T09:09:58;6.05;;;1.35;;
58689;SDS011;44470;53.206;-6.106;2023-01-31T09:12:23;7.82;;;1.85;;
58689;SDS011;44470;53.206;-6.106;2023-01-31T09:14:49;3.80;;;1.50;;
58689;SDS011;44470;53.206;-6.106;2023-01-31T09:17:15;3.75;;;1.17;;
58689;SDS011;44470;53.206;-6.106;2023-01-31T09:19:41;5.10;;;1.48;;
58689;SDS011;44470;53.206;-6.106;2023-01-31T09:22:07;4.25;;;1.60;;
58689;SDS011;44470;53.206;-6.106;2023-01-31T09:24:32;6.50;;;1.52;;
58689;SDS011;44470;53.206;-6.106;2023-01-31T09:26:57;7.32;;;1.75;;
58689;SDS011;44470;53.206;-6.106;2023-01-31T09:29:23;4.15;;;1.45;;
58689;SDS011;44470;53.206;-6.106;2023-01-31T09:31:50;5.22;;;1.42;;
58689;SDS011;44470;53.206;-6.106;2023-01-31T09:34:16;4.60;;;1.73;;
58689;SDS011;44470;53.206;-6.106;2023-01-31T09:36:42;6.57;;;2.10;;
58689;SDS011;44470;53.206;-6.106;2023-01-31T09:39:09;3.45;;;1.38;;
58689;SDS011;44470;53.206;-6.106;2023-01-31T09:46:53;3.88;;;1.40;;
58689;SDS011;44470;53.206;-6.106;2023-01-31T09:49:27;5.60;;;1.50;;
58689;SDS011;44470;53.206;-6.106;2023-01-31T09:52:00;4.25;;;1.38;;
58689;SDS011;44470;53.206;-6.106;2023-01-31T09:54:28;4.82;;;1.45;;
58689;SDS011;44470;53.206;-6.106;2023-01-31T10:03:19;5.30;;;1.60;;
58689;SDS011;44470;53.206;-6.106;2023-01-31T10:08:22;5.22;;;1.48;;
58689;SDS011;44470;53.206;-6.106;2023-01-31T10:10:55;4.07;;;1.38;;
58689;SDS011;44470;53.206;-6.106;2023-01-31T10:13:47;5.60;;;1.50;;
58689;SDS011;44470;53.206;-6.106;2023-01-31T10:16:17;4.55;;;1.30;;
58689;SDS011;44470;53.206;-6.106;2023-01-31T10:18:53;3.72;;;1.23;;
58689;SDS011;44470;53.206;-6.106;2023-01-31T10:21:29;5.22;;;1.40;;
58689;SDS011;44470;53.206;-6.106;2023-01-31T10:24:14;3.72;;;1.50;;
58689;SDS011;44470;53.206;-6.106;2023-01-31T10:26:54;2.55;;;1.23;;
58689;SDS011;44470;53.206;-6.106;2023-01-31T10:29:28;3.30;;;1.50;;
58689;SDS011;44470;53.206;-6.106;2023-01-31T10:39:39;5.25;;;1.40;;
58689;SDS011;44470;53.206;-6.106;2023-01-31T10:42:14;7.57;;;1.70;;
58689;SDS011;44470;53.206;-6.106;2023-01-31T10:47:18;5.53;;;1.65;;
58689;SDS011;44470;53.206;-6.106;2023-01-31T10:49:46;7.20;;;1.65;;
58689;SDS011;44470;53.206;-6.106;2023-01-31T10:52:21;4.18;;;1.45;;
58689;SDS011;44470;53.206;-6.106;2023-01-31T10:57:27;5.10;;;1.50;;
58689;SDS011;44470;53.206;-6.106;2023-01-31T10:59:52;5.03;;;1.85;;
58689;SDS011;44470;53.206;-6.106;2023-01-31T11:02:20;5.60;;;1.52;;
58689;SDS011;44470;53.206;-6.106;2023-01-31T11:04:50;3.95;;;1.30;;
58689;SDS011;44470;53.206;-6.106;2023-01-31T11:07:29;4.78;;;2.03;;
58689;SDS011;44470;53.206;-6.106;2023-01-31T11:09:55;6.95;;;1.52;;
58689;SDS011;44470;53.206;-6.106;2023-01-31T11:12:42;6.90;;;1.60;;
58689;SDS011;44470;53.206;-6.106;2023-01-31T11:15:17;9.20;;;1.83;;
58689;SDS011;44470;53.206;-6.106;2023-01-31T11:17:44;5.78;;;1.52;;
58689;SDS011;44470;53.206;-6.106;2023-01-31T11:20:26;4.38;;;1.13;;
58689;SDS011;44470;53.206;-6.106;2023-01-31T11:22:58;6.28;;;1.58;;
58689;SDS011;44470;53.206;-6.106;2023-01-31T11:25:25;4.00;;;1.58;;
58689;SDS011;44470;53.206;-6.106;2023-01-31T11:27:53;8.00;;;1.60;;
58689;SDS011;44470;53.206;-6.106;2023-01-31T11:30:28;4.10;;;1.60;;
58689;SDS011;44470;53.206;-6.106;2023-01-31T11:32:56;5.35;;;1.40;;
58689;SDS011;44470;53.206;-6.106;2023-01-31T11:35:23;3.65;;;1.40;;
58689;SDS011;44470;53.206;-6.106;2023-01-31T11:37:52;4.03;;;1.38;;
58689;SDS011;44470;53.206;-6.106;2023-01-31T11:40:19;5.88;;;1.73;;
58689;SDS011;44470;53.206;-6.106;2023-01-31T11:43:19;6.35;;;1.60;;
58689;SDS011;44470;53.206;-6.106;2023-01-31T11:45:53;4.60;;;1.77;;
58689;SDS011;44470;53.206;-6.106;2023-01-31T11:48:23;6.28;;;1.60;;
58689;SDS011;44470;53.206;-6.106;2023-01-31T11:51:01;5.95;;;1.52;;
58689;SDS011;44470;53.206;-6.106;2023-01-31T11:56:16;5.65;;;1.48;;
58689;SDS011;44470;53.206;-6.106;2023-01-31T11:58:47;4.25;;;1.60;;
58689;SDS011;44470;53.206;-6.106;2023-01-31T12:01:17;10.35;;;2.20;;
58689;SDS011;44470;53.206;-6.106;2023-01-31T12:03:50;6.60;;;1.95;;
58689;SDS011;44470;53.206;-6.106;2023-01-31T12:08:54;6.15;;;2.00;;
58689;SDS011;44470;53.206;-6.106;2023-01-31T12:11:26;5.05;;;2.10;;
58689;SDS011;44470;53.206;-6.106;2023-01-31T12:16:31;6.95;;;2.42;;
58689;SDS011;44470;53.206;-6.106;2023-01-31T13:05:32;8.05;;;2.20;;
58689;SDS011;44470;53.206;-6.106;2023-01-31T13:08:17;9.30;;;3.00;;
58689;SDS011;44470;53.206;-6.106;2023-01-31T13:10:57;9.23;;;2.40;;
58689;SDS011;44470;53.206;-6.106;2023-01-31T13:13:25;6.95;;;2.22;;
58689;SDS011;44470;53.206;-6.106;2023-01-31T13:15:55;8.43;;;2.58;;
58689;SDS011;44470;53.206;-6.106;2023-01-31T13:18:25;8.63;;;2.50;;
58689;SDS011;44470;53.206;-6.106;2023-01-31T13:20:56;10.02;;;2.22;;
58689;SDS011;44470;53.206;-6.106;2023-01-31T13:23:33;10.93;;;2.90;;
58689;SDS011;44470;53.206;-6.106;2023-01-31T13:26:10;9.68;;;2.75;;
58689;SDS011;44470;53.206;-6.106;2023-01-31T13:28:47;8.77;;;2.33;;
58689;SDS011;44470;53.206;-6.106;2023-01-31T13:31:46;8.73;;;2.30;;
58689;SDS011;44470;53.206;-6.106;2023-01-31T13:34:19;8.25;;;2.25;;
58689;SDS011;44470;53.206;-6.106;2023-01-31T13:36:51;7.35;;;2.50;;
58689;SDS011;44470;53.206;-6.106;2023-01-31T13:39:38;9.00;;;2.55;;
58689;SDS011;44470;53.206;-6.106;2023-01-31T13:42:06;9.73;;;2.60;;
58689;SDS011;44470;53.206;-6.106;2023-01-31T13:44:34;9.45;;;2.45;;
58689;SDS011;44470;53.206;-6.106;2023-01-31T13:49:51;9.38;;;2.60;;
58689;SDS011;44470;53.206;-6.106;2023-01-31T13:52:26;11.23;;;2.80;;
58689;SDS011;44470;53.206;-6.106;2023-01-31T13:55:00;6.38;;;2.42;;
58689;SDS011;44470;53.206;-6.106;2023-01-31T13:57:33;6.30;;;2.40;;
58689;SDS011;44470;53.206;-6.106;2023-01-31T14:00:23;9.90;;;2.55;;
58689;SDS011;44470;53.206;-6.106;2023-01-31T14:11:30;5.07;;;1.80;;
58689;SDS011;44470;53.206;-6.106;2023-01-31T14:13:49;5.85;;;2.20;;
58689;SDS011;44470;53.206;-6.106;2023-01-31T14:19:29;9.10;;;2.40;;
58689;SDS011;44470;53.206;-6.106;2023-01-31T14:21:51;6.50;;;2.15;;
58689;SDS011;44470;53.206;-6.106;2023-01-31T14:27:32;7.90;;;2.15;;
58689;SDS011;44470;53.206;-6.106;2023-01-31T14:32:30;5.85;;;1.83;;
58689;SDS011;44470;53.206;-6.106;2023-01-31T14:35:03;6.45;;;2.20;;
58689;SDS011;44470;53.206;-6.106;2023-01-31T14:51:26;6.28;;;2.20;;
58689;SDS011;44470;53.206;-6.106;2023-01-31T14:59:53;5.03;;;1.70;;
58689;SDS011;44470;53.206;-6.106;2023-01-31T15:02:23;4.65;;;1.83;;
58689;SDS011;44470;53.206;-6.106;2023-01-31T15:05:03;4.88;;;1.85;;
58689;SDS011;44470;53.206;-6.106;2023-01-31T15:07:33;4.75;;;1.90;;
58689;SDS011;44470;53.206;-6.106;2023-01-31T15:09:58;5.55;;;1.67;;
58689;SDS011;44470;53.206;-6.106;2023-01-31T15:18:00;5.75;;;2.10;;
58689;SDS011;44470;53.206;-6.106;2023-01-31T15:23:03;4.93;;;1.77;;
58689;SDS011;44470;53.206;-6.106;2023-01-31T15:25:41;3.70;;;1.60;;
58689;SDS011;44470;53.206;-6.106;2023-01-31T15:28:09;2.85;;;1.73;;
58689;SDS011;44470;53.206;-6.106;2023-01-31T15:30:40;2.72;;;1.55;;
58689;SDS011;44470;53.206;-6.106;2023-01-31T15:41:44;3.65;;;1.90;;
58689;SDS011;44470;53.206;-6.106;2023-01-31T15:46:47;3.67;;;1.98;;
58689;SDS011;44470;53.206;-6.106;2023-01-31T15:49:25;2.42;;;1.55;;
58689;SDS011;44470;53.206;-6.106;2023-01-31T15:54:36;7.50;;;2.00;;
58689;SDS011;44470;53.206;-6.106;2023-01-31T15:57:02;2.90;;;1.58;;
58689;SDS011;44470;53.206;-6.106;2023-01-31T16:02:29;3.47;;;1.73;;
58689;SDS011;44470;53.206;-6.106;2023-01-31T16:05:05;1.85;;;1.55;;
58689;SDS011;44470;53.206;-6.106;2023-01-31T16:07:31;3.00;;;1.48;;
58689;SDS011;44470;53.206;-6.106;2023-01-31T16:09:58;2.97;;;1.77;;
58689;SDS011;44470;53.206;-6.106;2023-01-31T16:12:30;3.75;;;1.92;;
58689;SDS011;44470;53.206;-6.106;2023-01-31T16:14:58;3.13;;;1.33;;
58689;SDS011;44470;53.206;-6.106;2023-01-31T16:17:28;3.85;;;1.80;;
58689;SDS011;44470;53.206;-6.106;2023-01-31T16:19:54;2.00;;;1.65;;
58689;SDS011;44470;53.206;-6.106;2023-01-31T16:22:22;2.88;;;1.60;;
58689;SDS011;44470;53.206;-6.106;2023-01-31T16:24:51;3.00;;;1.20;;
58689;SDS011;44470;53.206;-6.106;2023-01-31T16:27:18;4.65;;;1.80;;
58689;SDS011;44470;53.206;-6.106;2023-01-31T16:29:45;4.07;;;1.73;;
58689;SDS011;44470;53.206;-6.106;2023-01-31T16:32:14;2.97;;;1.40;;
58689;SDS011;44470;53.206;-6.106;2023-01-31T16:34:44;2.80;;;1.67;;
58689;SDS011;44470;53.206;-6.106;2023-01-31T16:37:17;3.20;;;1.65;;
58689;SDS011;44470;53.206;-6.106;2023-01-31T16:39:58;5.18;;;1.90;;
58689;SDS011;44470;53.206;-6.106;2023-01-31T16:42:31;3.70;;;1.73;;
58689;SDS011;44470;53.206;-6.106;2023-01-31T16:45:00;2.23;;;1.70;;
58689;SDS011;44470;53.206;-6.106;2023-01-31T16:52:41;2.05;;;1.40;;
58689;SDS011;44470;53.206;-6.106;2023-01-31T16:55:12;3.97;;;1.60;;
58689;SDS011;44470;53.206;-6.106;2023-01-31T16:57:42;3.47;;;1.52;;
58689;SDS011;44470;53.206;-6.106;2023-01-31T17:00:50;1.95;;;1.63;;
58689;SDS011;44470;53.206;-6.106;2023-01-31T17:02:57;3.90;;;1.58;;
58689;SDS011;44470;53.206;-6.106;2023-01-31T17:08:04;2.50;;;1.27;;
58689;SDS011;44470;53.206;-6.106;2023-01-31T17:10:37;3.00;;;1.33;;
58689;SDS011;44470;53.206;-6.106;2023-01-31T17:15:40;3.15;;;1.60;;
58689;SDS011;44470;53.206;-6.106;2023-01-31T17:18:07;3.60;;;1.70;;
58689;SDS011;44470;53.206;-6.106;2023-01-31T17:20:34;2.42;;;1.60;;
58689;SDS011;44470;53.206;-6.106;2023-01-31T17:23:00;2.25;;;1.70;;
58689;SDS011;44470;53.206;-6.106;2023-01-31T17:25:29;2.70;;;1.52;;
58689;SDS011;44470;53.206;-6.106;2023-01-31T17:27:57;3.53;;;1.80;;
58689;SDS011;44470;53.206;-6.106;2023-01-31T17:30:22;3.00;;;1.90;;
58689;SDS011;44470;53.206;-6.106;2023-01-31T17:32:48;2.50;;;1.60;;
58689;SDS011;44470;53.206;-6.106;2023-01-31T17:35:17;3.45;;;1.95;;
58689;SDS011;44470;53.206;-6.106;2023-01-31T17:37:51;3.50;;;1.55;;
58689;SDS011;44470;53.206;-6.106;2023-01-31T17:40:17;1.65;;;1.38;;
58689;SDS011;44470;53.206;-6.106;2023-01-31T17:42:42;3.42;;;1.70;;
58689;SDS011;44470;53.206;-6.106;2023-01-31T17:45:11;2.28;;;1.70;;
58689;SDS011;44470;53.206;-6.106;2023-01-31T17:47:39;3.00;;;1.50;;
58689;SDS011;44470;53.206;-6.106;2023-01-31T17:50:05;3.92;;;1.98;;
58689;SDS011;44470;53.206;-6.106;2023-01-31T17:52:31;3.17;;;1.80;;
58689;SDS011;44470;53.206;-6.106;2023-01-31T17:54:57;3.30;;;1.73;;
58689;SDS011;44470;53.206;-6.106;2023-01-31T17:57:26;3.20;;;1.70;;
58689;SDS011;44470;53.206;-6.106;2023-01-31T17:59:51;4.22;;;1.75;;
58689;SDS011;44470;53.206;-6.106;2023-01-31T18:02:17;3.97;;;2.08;;
58689;SDS011;44470;53.206;-6.106;2023-01-31T18:04:43;3.33;;;1.67;;
58689;SDS011;44470;53.206;-6.106;2023-01-31T18:07:08;3.97;;;1.75;;
58689;SDS011;44470;53.206;-6.106;2023-01-31T18:09:34;3.13;;;1.80;;
58689;SDS011;44470;53.206;-6.106;2023-01-31T18:11:59;4.13;;;2.00;;
58689;SDS011;44470;53.206;-6.106;2023-01-31T18:14:25;2.75;;;1.73;;
58689;SDS011;44470;53.206;-6.106;2023-01-31T18:16:50;4.97;;;2.05;;
58689;SDS011;44470;53.206;-6.106;2023-01-31T18:19:18;3.80;;;2.13;;